Time;durP1;ratioP1;P1;durP2;ratioP2;P2;SDS_P1;SDS_P2;PMS_P1;PMS_P2;Temp;Humidity;BMP_temperature;BMP_pressure;BME280_temperature;BME280_humidity;BME280_pressure;Samples;Min_cycle;Max_cycle;Signal;HPM_P1;HPM_P2
2023/08/02 00:00:30;;;;;;;;;;;15.90;99.90;;;;;;5097699;28;19915;-64
2023/08/02 00:02:57;;;;;;;;;;;16.00;99.90;;;;;;5097472;28;20353;-66
2023/08/02 00:05:23;;;;;;;;;;;16.10;99.90;;;;;;5091782;28;19913;-64
2023/08/02 00:07:50;;;;;;;;;;;16.10;99.90;;;;;;5111298;28;19915;-65
2023/08/02 00:10:16;;;;;;;;;;;16.30;99.90;;;;;;5112308;28;19923;-64
2023/08/02 00:12:43;;;;;;;;;;;16.30;99.90;;;;;;5111622;28;19916;-64
2023/08/02 00:15:10;;;;;;;;;;;16.50;99.90;;;;;;5112162;28;19908;-64
2023/08/02 00:17:36;;;;;;;;;;;16.60;99.90;;;;;;5111359;28;20002;-64
2023/08/02 00:20:04;;;;;;;;;;;16.80;99.90;;;;;;5110340;28;19915;-65
2023/08/02 00:22:30;;;;;;;;;;;16.90;99.90;;;;;;5099998;28;19948;-64
2023/08/02 00:24:57;;;;;;;;;;;17.20;99.90;;;;;;5102934;28;19973;-64
2023/08/02 00:27:23;;;;;;;;;;;17.20;99.90;;;;;;5110984;28;19926;-65
2023/08/02 00:29:50;;;;;;;;;;;17.30;99.90;;;;;;5111734;28;19908;-64
2023/08/02 00:32:18;;;;;;;;;;;17.50;99.90;;;;;;5103351;28;19939;-63
2023/08/02 00:34:45;;;;;;;;;;;17.70;99.90;;;;;;5091901;28;20295;-64
2023/08/02 00:37:12;;;;;;;;;;;17.70;99.90;;;;;;5096339;28;19908;-62
2023/08/02 00:39:39;;;;;;;;;;;17.60;99.90;;;;;;5105200;28;19978;-64
2023/08/02 00:42:05;;;;;;;;;;;17.70;99.90;;;;;;5098269;28;19968;-64
2023/08/02 00:44:32;;;;;;;;;;;17.80;99.90;;;;;;5112291;28;20374;-63
2023/08/02 00:46:58;;;;;;;;;;;17.90;99.90;;;;;;5111984;28;19907;-62
2023/08/02 00:49:25;;;;;;;;;;;18.00;99.90;;;;;;5109635;28;20395;-63
2023/08/02 00:51:52;;;;;;;;;;;18.00;99.90;;;;;;5105761;28;19916;-64
2023/08/02 00:54:18;;;;;;;;;;;18.10;99.90;;;;;;5091810;28;19951;-65
2023/08/02 00:56:46;;;;;;;;;;;18.10;99.90;;;;;;5104789;28;19908;-63
2023/08/02 00:59:12;;;;;;;;;;;18.20;99.90;;;;;;5111434;28;20033;-65
2023/08/02 01:01:39;;;;;;;;;;;18.20;99.90;;;;;;5110320;28;19916;-64
2023/08/02 01:04:05;;;;;;;;;;;18.40;99.90;;;;;;5092670;28;19914;-64
2023/08/02 01:06:38;;;;;;;;;;;18.60;99.90;;;;;;5093445;28;19912;-66
2023/08/02 01:09:08;;;;;;;;;;;18.70;99.90;;;;;;5111579;28;19908;-67
2023/08/02 01:11:41;;;;;;;;;;;18.80;99.90;;;;;;5108153;28;20360;-65
2023/08/02 01:14:10;;;;;;;;;;;18.90;99.90;;;;;;5091137;28;19908;-66
2023/08/02 01:16:37;;;;;;;;;;;18.90;99.90;;;;;;5107401;28;19943;-64
2023/08/02 01:19:10;;;;;;;;;;;18.90;99.90;;;;;;5098343;28;19920;-67
2023/08/02 01:21:37;;;;;;;;;;;18.80;99.90;;;;;;5090231;28;19962;-64
2023/08/02 01:24:04;;;;;;;;;;;18.80;99.90;;;;;;5091321;28;19908;-65
2023/08/02 01:26:31;;;;;;;;;;;18.80;99.90;;;;;;5090970;28;19908;-66
2023/08/02 01:29:00;;;;;;;;;;;18.90;99.90;;;;;;5091581;28;19948;-64
2023/08/02 01:31:27;;;;;;;;;;;19.00;99.90;;;;;;5094333;28;19914;-64
2023/08/02 01:33:55;;;;;;;;;;;19.00;99.90;;;;;;5115333;28;19933;-64
2023/08/02 01:36:22;;;;;;;;;;;19.10;99.90;;;;;;5115459;28;19923;-64
2023/08/02 01:38:49;;;;;;;;;;;19.20;99.90;;;;;;5115594;28;19908;-65
2023/08/02 01:41:15;;;;;;;;;;;19.20;99.90;;;;;;5114767;28;20006;-64
2023/08/02 01:43:42;;;;;;;;;;;19.30;99.90;;;;;;5103708;28;19926;-64
2023/08/02 01:46:09;;;;;;;;;;;19.40;99.90;;;;;;5114327;28;19912;-66
2023/08/02 01:48:35;;;;;;;;;;;19.30;99.90;;;;;;5115045;28;19950;-65
2023/08/02 01:51:02;;;;;;;;;;;19.30;99.90;;;;;;5114707;28;19960;-65
2023/08/02 01:53:29;;;;;;;;;;;19.50;99.90;;;;;;5111146;28;19912;-64
2023/08/02 01:55:55;;;;;;;;;;;19.60;99.90;;;;;;5114155;28;20276;-65
2023/08/02 01:58:22;;;;;;;;;;;19.60;99.90;;;;;;5114319;28;19993;-65
2023/08/02 02:00:48;;;;;;;;;;;19.70;99.90;;;;;;5114719;28;20385;-64
2023/08/02 02:03:15;;;;;;;;;;;19.70;99.90;;;;;;5113741;28;19952;-64
2023/08/02 02:05:50;;;;;;;;;;;19.80;99.90;;;;;;5105280;28;19920;-65
2023/08/02 02:08:17;;;;;;;;;;;19.90;99.90;;;;;;5095074;28;20284;-66
2023/08/02 02:10:53;;;;;;;;;;;20.10;99.90;;;;;;5099923;28;20369;-64
2023/08/02 02:13:21;;;;;;;;;;;20.20;99.70;;;;;;5095540;28;20318;-65
2023/08/02 02:15:47;;;;;;;;;;;20.20;99.90;;;;;;5114411;28;19912;-64
2023/08/02 02:18:14;;;;;;;;;;;20.30;99.60;;;;;;5106160;28;19912;-64
2023/08/02 02:20:41;;;;;;;;;;;20.40;99.30;;;;;;5090630;28;19953;-66
2023/08/02 02:23:08;;;;;;;;;;;20.50;98.80;;;;;;5098213;28;19908;-66
2023/08/02 02:25:34;;;;;;;;;;;20.60;98.80;;;;;;5110216;28;19908;-66
2023/08/02 02:28:01;;;;;;;;;;;20.80;98.80;;;;;;5113688;28;19912;-65
2023/08/02 02:30:28;;;;;;;;;;;20.80;99.10;;;;;;5113541;28;20356;-67
2023/08/02 02:32:54;;;;;;;;;;;20.80;98.20;;;;;;5113668;28;19916;-66
2023/08/02 02:35:21;;;;;;;;;;;20.70;98.60;;;;;;5114483;28;19950;-66
2023/08/02 02:37:47;;;;;;;;;;;20.60;98.40;;;;;;5113316;28;20002;-66
2023/08/02 02:40:14;;;;;;;;;;;20.20;98.90;;;;;;5111278;28;19924;-66
2023/08/02 02:42:41;;;;;;;;;;;20.20;99.00;;;;;;5111930;28;19916;-67
2023/08/02 02:45:08;;;;;;;;;;;20.20;98.80;;;;;;5112669;28;19927;-65
2023/08/02 02:47:35;;;;;;;;;;;20.20;99.30;;;;;;5111386;28;19948;-65
2023/08/02 02:50:02;;;;;;;;;;;20.20;99.10;;;;;;5091876;28;19912;-66
2023/08/02 02:52:29;;;;;;;;;;;20.10;99.00;;;;;;5092155;28;19923;-67
2023/08/02 02:54:55;;;;;;;;;;;19.80;99.30;;;;;;5095002;28;20303;-66
2023/08/02 02:57:22;;;;;;;;;;;19.70;99.90;;;;;;5093460;28;19915;-66
2023/08/02 02:59:48;;;;;;;;;;;19.90;99.70;;;;;;5093746;28;20254;-65
2023/08/02 03:02:15;;;;;;;;;;;19.80;99.70;;;;;;5093953;28;19916;-67
2023/08/02 03:04:42;;;;;;;;;;;19.90;99.70;;;;;;5093897;28;19908;-67
2023/08/02 03:07:08;;;;;;;;;;;19.80;99.90;;;;;;5105830;28;19912;-65
2023/08/02 03:09:35;;;;;;;;;;;19.80;99.80;;;;;;5114406;28;19966;-67
2023/08/02 03:12:01;;;;;;;;;;;19.70;99.80;;;;;;5113984;28;19915;-67
2023/08/02 03:14:28;;;;;;;;;;;19.60;99.60;;;;;;5114255;28;19908;-66
2023/08/02 03:16:55;;;;;;;;;;;19.40;99.70;;;;;;5114038;28;19908;-65
2023/08/02 03:19:21;;;;;;;;;;;19.40;99.60;;;;;;5098341;28;20345;-66
2023/08/02 03:21:48;;;;;;;;;;;19.20;99.90;;;;;;5093665;28;20403;-65
2023/08/02 03:24:15;;;;;;;;;;;19.10;99.90;;;;;;5093745;28;19908;-68
2023/08/02 03:26:41;;;;;;;;;;;19.00;99.90;;;;;;5075121;28;19955;-66
2023/08/02 03:29:08;;;;;;;;;;;19.10;99.90;;;;;;5093210;28;20003;-67
2023/08/02 03:31:34;;;;;;;;;;;19.00;99.90;;;;;;5093441;28;20363;-66
2023/08/02 03:34:01;;;;;;;;;;;18.90;99.90;;;;;;5093335;28;19914;-66
2023/08/02 03:36:28;;;;;;;;;;;18.90;99.90;;;;;;5098880;28;20338;-66
2023/08/02 03:38:54;;;;;;;;;;;18.90;99.90;;;;;;5111550;28;19955;-68
2023/08/02 03:41:21;;;;;;;;;;;18.80;99.90;;;;;;5113912;28;19916;-66
2023/08/02 03:43:47;;;;;;;;;;;18.70;99.90;;;;;;5113646;28;20038;-67
2023/08/02 03:46:14;;;;;;;;;;;18.70;99.90;;;;;;5080342;28;19912;-66
2023/08/02 03:48:41;;;;;;;;;;;18.70;99.90;;;;;;5074910;28;19908;-67
2023/08/02 03:51:07;;;;;;;;;;;18.70;99.90;;;;;;5093010;28;19908;-67
2023/08/02 03:53:34;;;;;;;;;;;18.60;99.90;;;;;;5091909;28;19997;-67
2023/08/02 03:56:01;;;;;;;;;;;18.60;99.90;;;;;;5092890;28;19908;-67
2023/08/02 03:58:27;;;;;;;;;;;18.50;99.90;;;;;;5093197;28;19909;-67
2023/08/02 04:00:54;;;;;;;;;;;18.40;99.90;;;;;;5092926;28;19912;-67
2023/08/02 04:03:20;;;;;;;;;;;18.30;99.90;;;;;;5092925;28;19908;-66
2023/08/02 04:05:47;;;;;;;;;;;18.30;99.90;;;;;;5100419;28;20363;-68
2023/08/02 04:08:14;;;;;;;;;;;18.30;99.90;;;;;;5113111;28;19939;-66
2023/08/02 04:10:40;;;;;;;;;;;18.30;99.90;;;;;;5112774;28;19994;-67
2023/08/02 04:13:07;;;;;;;;;;;18.30;99.90;;;;;;5112692;28;20315;-65
2023/08/02 04:15:34;;;;;;;;;;;18.40;99.90;;;;;;5093288;28;20007;-65
2023/08/02 04:18:02;;;;;;;;;;;18.40;99.90;;;;;;5075262;28;19955;-64
2023/08/02 04:20:28;;;;;;;;;;;18.60;99.90;;;;;;5083128;28;19911;-64
2023/08/02 04:22:55;;;;;;;;;;;18.80;99.90;;;;;;5111975;28;19916;-66
2023/08/02 04:25:22;;;;;;;;;;;19.00;99.90;;;;;;5112924;28;20003;-64
2023/08/02 04:27:49;;;;;;;;;;;19.40;99.90;;;;;;5112589;28;19914;-64
2023/08/02 04:30:16;;;;;;;;;;;19.70;99.90;;;;;;5112515;28;19930;-64
2023/08/02 04:32:42;;;;;;;;;;;20.00;99.90;;;;;;5112201;28;19908;-64
2023/08/02 04:35:09;;;;;;;;;;;20.30;99.80;;;;;;5089762;28;20319;-64
2023/08/02 04:37:36;;;;;;;;;;;20.50;99.40;;;;;;5091183;28;19938;-62
2023/08/02 04:40:02;;;;;;;;;;;20.70;98.90;;;;;;5091725;28;19908;-65
2023/08/02 04:42:29;;;;;;;;;;;20.70;98.60;;;;;;5091613;28;19916;-62
2023/08/02 04:44:56;;;;;;;;;;;20.40;99.40;;;;;;5091625;28;19920;-63
2023/08/02 04:47:22;;;;;;;;;;;20.30;99.60;;;;;;5101061;28;19997;-65
2023/08/02 04:49:49;;;;;;;;;;;20.20;99.70;;;;;;5094062;28;19912;-65
2023/08/02 04:52:16;;;;;;;;;;;20.00;99.80;;;;;;5111693;28;19907;-65
2023/08/02 04:54:42;;;;;;;;;;;20.00;99.90;;;;;;5111679;28;19908;-65
2023/08/02 04:57:09;;;;;;;;;;;20.10;99.90;;;;;;5092159;28;19963;-63
2023/08/02 04:59:35;;;;;;;;;;;20.10;99.70;;;;;;5102505;28;19912;-65
2023/08/02 05:02:02;;;;;;;;;;;19.80;99.90;;;;;;5111864;28;19935;-65
2023/08/02 05:04:29;;;;;;;;;;;19.70;99.90;;;;;;5111802;28;19991;-65
2023/08/02 05:06:55;;;;;;;;;;;19.60;99.90;;;;;;5105805;28;19912;-64
2023/08/02 05:09:22;;;;;;;;;;;19.70;99.90;;;;;;5113013;28;20437;-63
2023/08/02 05:11:49;;;;;;;;;;;19.60;99.90;;;;;;5115276;28;19915;-64
2023/08/02 05:14:15;;;;;;;;;;;19.40;99.90;;;;;;5114956;28;19911;-64
2023/08/02 05:16:43;;;;;;;;;;;19.40;99.90;;;;;;5108476;28;20015;-65
2023/08/02 05:19:09;;;;;;;;;;;19.30;99.90;;;;;;5098229;28;20373;-64
2023/08/02 05:21:36;;;;;;;;;;;19.10;99.90;;;;;;5107991;28;19912;-64
2023/08/02 05:24:03;;;;;;;;;;;19.00;99.90;;;;;;5103041;28;19965;-66
2023/08/02 05:26:29;;;;;;;;;;;18.80;99.90;;;;;;5101950;28;19917;-66
2023/08/02 05:28:56;;;;;;;;;;;18.70;99.90;;;;;;5104313;28;19913;-66
2023/08/02 05:31:22;;;;;;;;;;;18.70;99.90;;;;;;5109662;28;19915;-65
2023/08/02 05:33:49;;;;;;;;;;;18.50;99.90;;;;;;5114538;28;20384;-66
2023/08/02 05:36:16;;;;;;;;;;;18.60;99.90;;;;;;5096071;28;19907;-65
2023/08/02 05:38:43;;;;;;;;;;;18.70;99.90;;;;;;5104198;28;20525;-65
2023/08/02 05:41:09;;;;;;;;;;;18.70;99.90;;;;;;5104906;27;19923;-65
2023/08/02 05:43:36;;;;;;;;;;;18.70;99.90;;;;;;5113602;28;19919;-66
2023/08/02 05:46:03;;;;;;;;;;;18.80;99.90;;;;;;5119055;27;19912;-65
2023/08/02 05:48:30;;;;;;;;;;;18.80;99.90;;;;;;5100881;28;19999;-66
2023/08/02 05:50:56;;;;;;;;;;;18.80;99.90;;;;;;5097449;27;19926;-65
2023/08/02 05:53:23;;;;;;;;;;;18.80;99.90;;;;;;5111998;28;19908;-65
2023/08/02 05:55:49;;;;;;;;;;;18.60;99.90;;;;;;5113827;28;20422;-66
2023/08/02 05:58:16;;;;;;;;;;;18.50;99.90;;;;;;5110950;28;19908;-65
2023/08/02 06:00:43;;;;;;;;;;;18.30;99.90;;;;;;5089152;28;19954;-65
2023/08/02 06:03:09;;;;;;;;;;;18.30;99.90;;;;;;5113902;28;19912;-64
2023/08/02 06:05:36;;;;;;;;;;;18.20;99.90;;;;;;5108931;27;19912;-65
2023/08/02 06:08:03;;;;;;;;;;;18.20;99.90;;;;;;5113952;28;19908;-63
2023/08/02 06:10:30;;;;;;;;;;;18.10;99.90;;;;;;5111974;27;20316;-66
2023/08/02 06:12:57;;;;;;;;;;;18.10;99.90;;;;;;5113889;28;19915;-64
2023/08/02 06:15:24;;;;;;;;;;;18.00;99.90;;;;;;5113269;28;20006;-64
2023/08/02 06:17:51;;;;;;;;;;;17.90;99.90;;;;;;5112541;28;19908;-66
2023/08/02 06:20:18;;;;;;;;;;;17.80;99.90;;;;;;5098966;27;19946;-65
2023/08/02 06:22:44;;;;;;;;;;;17.80;99.90;;;;;;5113464;28;19938;-66
2023/08/02 06:25:11;;;;;;;;;;;17.90;99.90;;;;;;5115590;27;19919;-66
2023/08/02 06:27:38;;;;;;;;;;;17.90;99.90;;;;;;5132657;27;19914;-64
2023/08/02 06:30:05;;;;;;;;;;;17.90;99.90;;;;;;5100372;27;19938;-66
2023/08/02 06:32:31;;;;;;;;;;;17.90;99.90;;;;;;5112374;28;20383;-64
2023/08/02 06:34:58;;;;;;;;;;;18.00;99.90;;;;;;5094451;28;20819;-65
2023/08/02 06:37:24;;;;;;;;;;;18.20;99.90;;;;;;5106327;28;19908;-66
2023/08/02 06:39:51;;;;;;;;;;;18.30;99.90;;;;;;5097510;27;19909;-67
2023/08/02 06:42:18;;;;;;;;;;;18.40;99.90;;;;;;5109289;28;20371;-65
2023/08/02 06:44:44;;;;;;;;;;;18.50;99.90;;;;;;5111571;28;20041;-65
2023/08/02 06:47:11;;;;;;;;;;;18.40;99.90;;;;;;5112199;28;19916;-65
2023/08/02 06:49:38;;;;;;;;;;;18.30;99.90;;;;;;5100862;28;19912;-65
2023/08/02 06:52:05;;;;;;;;;;;18.20;99.90;;;;;;5111744;28;19958;-66
2023/08/02 06:54:32;;;;;;;;;;;18.10;99.90;;;;;;5113345;28;19915;-65
2023/08/02 06:56:58;;;;;;;;;;;18.00;99.90;;;;;;5112496;28;20007;-63
2023/08/02 06:59:25;;;;;;;;;;;17.90;99.90;;;;;;5099521;28;19904;-66
2023/08/02 07:01:52;;;;;;;;;;;17.70;99.90;;;;;;5108090;28;19926;-66
2023/08/02 07:04:18;;;;;;;;;;;17.60;99.90;;;;;;5112156;28;19979;-65
2023/08/02 07:06:45;;;;;;;;;;;17.50;99.90;;;;;;5094341;28;19995;-65
2023/08/02 07:09:11;;;;;;;;;;;17.40;99.90;;;;;;5112502;28;19916;-65
2023/08/02 07:11:38;;;;;;;;;;;17.30;99.90;;;;;;5112562;28;19912;-66
2023/08/02 07:14:05;;;;;;;;;;;17.10;99.90;;;;;;5112253;28;19918;-62
2023/08/02 07:16:31;;;;;;;;;;;17.00;99.90;;;;;;5113005;28;19955;-64
2023/08/02 07:19:02;;;;;;;;;;;16.90;99.90;;;;;;5112304;28;19954;-63
2023/08/02 07:21:29;;;;;;;;;;;16.90;99.90;;;;;;5112203;28;19920;-64
2023/08/02 07:23:56;;;;;;;;;;;16.80;99.90;;;;;;5111867;28;20328;-65
2023/08/02 07:26:22;;;;;;;;;;;16.70;99.90;;;;;;5099826;28;19919;-65
2023/08/02 07:28:49;;;;;;;;;;;16.60;99.90;;;;;;5110827;28;19908;-65
2023/08/02 07:31:16;;;;;;;;;;;16.50;99.90;;;;;;5104917;28;19919;-65
2023/08/02 07:33:45;;;;;;;;;;;16.40;99.90;;;;;;5112500;27;19927;-64
2023/08/02 07:36:18;;;;;;;;;;;16.40;99.90;;;;;;5109084;28;20006;-66
2023/08/02 07:38:45;;;;;;;;;;;16.30;99.90;;;;;;5110999;28;20398;-65
2023/08/02 07:41:12;;;;;;;;;;;16.20;99.90;;;;;;5106947;28;20386;-67
2023/08/02 07:43:39;;;;;;;;;;;16.10;99.90;;;;;;5111633;28;20384;-67
2023/08/02 07:46:14;;;;;;;;;;;16.10;99.90;;;;;;5094274;28;19908;-64
2023/08/02 07:48:41;;;;;;;;;;;16.10;99.90;;;;;;5109952;27;19934;-65
2023/08/02 07:51:07;;;;;;;;;;;16.00;99.90;;;;;;5105688;28;19933;-65
2023/08/02 07:53:35;;;;;;;;;;;16.00;99.90;;;;;;5111561;28;19964;-63
2023/08/02 07:56:05;;;;;;;;;;;15.90;99.90;;;;;;5094656;28;19912;-66
2023/08/02 07:58:31;;;;;;;;;;;15.80;99.90;;;;;;5111577;28;19954;-66
2023/08/02 08:01:04;;;;;;;;;;;15.80;99.90;;;;;;5104533;28;19916;-66
2023/08/02 08:03:31;;;;;;;;;;;15.70;99.90;;;;;;5111583;28;19918;-66
2023/08/02 08:05:57;;;;;;;;;;;15.70;99.90;;;;;;5094973;28;19919;-66
2023/08/02 08:08:24;;;;;;;;;;;15.60;99.90;;;;;;5108395;28;19912;-66
2023/08/02 08:10:51;;;;;;;;;;;15.60;99.90;;;;;;5099273;28;19960;-66
2023/08/02 08:13:18;;;;;;;;;;;15.40;99.90;;;;;;5104187;28;19961;-65
2023/08/02 08:15:45;;;;;;;;;;;15.40;99.90;;;;;;5110347;28;19912;-65
2023/08/02 08:18:11;;;;;;;;;;;15.40;99.90;;;;;;5107363;28;20322;-66
2023/08/02 08:20:38;;;;;;;;;;;15.40;99.90;;;;;;5102712;28;19916;-67
2023/08/02 08:23:04;;;;;;;;;;;15.30;99.90;;;;;;5108019;28;19977;-65
2023/08/02 08:25:31;;;;;;;;;;;15.30;99.90;;;;;;5109757;28;19919;-70
2023/08/02 08:27:58;;;;;;;;;;;15.20;99.90;;;;;;5111536;28;19915;-68
2023/08/02 08:30:24;;;;;;;;;;;15.20;99.90;;;;;;5111115;28;19918;-69
2023/08/02 08:32:51;;;;;;;;;;;15.10;99.90;;;;;;5111916;28;19986;-69
2023/08/02 08:35:18;;;;;;;;;;;15.10;99.90;;;;;;5111832;28;19972;-69
2023/08/02 08:37:48;;;;;;;;;;;15.00;99.90;;;;;;5111919;28;19911;-70
2023/08/02 08:40:17;;;;;;;;;;;15.00;99.90;;;;;;5111825;28;20388;-69
2023/08/02 08:42:48;;;;;;;;;;;14.90;99.90;;;;;;5105381;28;19931;-69
2023/08/02 08:45:16;;;;;;;;;;;14.80;99.90;;;;;;5113529;28;19920;-69
2023/08/02 08:47:45;;;;;;;;;;;14.90;99.90;;;;;;5115993;28;19912;-69
2023/08/02 08:50:12;;;;;;;;;;;14.80;99.90;;;;;;5120772;27;19911;-69
2023/08/02 08:52:40;;;;;;;;;;;14.80;99.90;;;;;;5116027;28;19947;-70
2023/08/02 08:55:09;;;;;;;;;;;14.70;99.90;;;;;;5115819;27;20280;-69
2023/08/02 08:57:36;;;;;;;;;;;14.70;99.90;;;;;;5097641;28;19914;-70
2023/08/02 09:00:05;;;;;;;;;;;14.70;99.90;;;;;;5115463;28;19923;-70
2023/08/02 09:02:32;;;;;;;;;;;14.60;99.90;;;;;;5112291;28;19924;-66
2023/08/02 09:05:01;;;;;;;;;;;14.60;99.90;;;;;;5115678;27;19911;-70
2023/08/02 09:07:27;;;;;;;;;;;14.60;99.90;;;;;;5114098;28;19912;-68
2023/08/02 09:09:54;;;;;;;;;;;14.60;99.90;;;;;;5115957;27;19923;-70
2023/08/02 09:12:20;;;;;;;;;;;14.50;99.90;;;;;;5116005;28;19907;-70
2023/08/02 09:15:05;;;;;;;;;;;14.50;99.90;;;;;;5115701;27;19920;-67
2023/08/02 09:17:58;;;;;;;;;;;14.40;99.90;;;;;;5115851;28;19915;-67
2023/08/02 09:20:26;;;;;;;;;;;14.40;99.90;;;;;;5111598;27;19912;-68
2023/08/02 09:22:53;;;;;;;;;;;14.40;99.90;;;;;;5115253;28;19916;-70
2023/08/02 09:25:26;;;;;;;;;;;14.30;99.90;;;;;;5115628;27;20541;-69
2023/08/02 09:27:54;;;;;;;;;;;14.30;99.90;;;;;;5112920;28;19955;-68
2023/08/02 09:30:24;;;;;;;;;;;14.20;99.90;;;;;;5105671;28;19919;-68
2023/08/02 09:33:00;;;;;;;;;;;14.20;99.90;;;;;;5094884;28;19935;-69
2023/08/02 09:35:27;;;;;;;;;;;14.20;99.90;;;;;;5111907;27;19981;-69
2023/08/02 09:37:53;;;;;;;;;;;14.10;99.90;;;;;;5114772;28;19912;-67
2023/08/02 09:40:34;;;;;;;;;;;14.10;99.90;;;;;;5109435;28;19934;-67
2023/08/02 09:43:00;;;;;;;;;;;14.10;99.90;;;;;;5108506;28;20380;-68
2023/08/02 09:45:31;;;;;;;;;;;14.10;99.90;;;;;;5102853;28;20411;-69
2023/08/02 09:47:57;;;;;;;;;;;14.00;99.90;;;;;;5094265;28;19912;-69
2023/08/02 09:50:24;;;;;;;;;;;14.00;99.90;;;;;;5111074;27;19944;-69
2023/08/02 09:52:51;;;;;;;;;;;14.00;99.90;;;;;;5114895;28;20360;-67
2023/08/02 09:55:17;;;;;;;;;;;13.90;99.90;;;;;;5096802;28;19912;-69
2023/08/02 09:57:47;;;;;;;;;;;13.90;99.90;;;;;;5115284;28;20380;-66
2023/08/02 10:00:14;;;;;;;;;;;14.00;99.90;;;;;;5107839;27;19934;-70
2023/08/02 10:02:41;;;;;;;;;;;13.80;99.90;;;;;;5114002;28;19974;-70
2023/08/02 10:05:14;;;;;;;;;;;13.80;99.90;;;;;;5112263;27;19920;-70
2023/08/02 10:07:41;;;;;;;;;;;13.80;99.90;;;;;;5111309;28;19912;-71
2023/08/02 10:10:17;;;;;;;;;;;13.70;99.90;;;;;;5113269;27;19912;-71
2023/08/02 10:12:48;;;;;;;;;;;13.80;99.90;;;;;;5108296;28;19951;-71
2023/08/02 10:15:15;;;;;;;;;;;13.80;99.90;;;;;;5113766;27;19911;-71
2023/08/02 10:17:42;;;;;;;;;;;13.70;99.90;;;;;;5114298;28;19951;-71
2023/08/02 10:20:10;;;;;;;;;;;13.70;99.90;;;;;;5113590;28;20404;-70
2023/08/02 10:22:37;;;;;;;;;;;13.70;99.90;;;;;;5112549;28;19920;-70
2023/08/02 10:25:04;;;;;;;;;;;13.50;99.90;;;;;;5111245;28;20585;-70
2023/08/02 10:27:31;;;;;;;;;;;13.60;99.90;;;;;;5113241;28;19912;-71
2023/08/02 10:29:58;;;;;;;;;;;13.60;99.90;;;;;;5112835;27;19915;-72
2023/08/02 10:32:25;;;;;;;;;;;13.50;99.90;;;;;;5113961;28;19912;-68
2023/08/02 10:34:52;;;;;;;;;;;13.50;99.90;;;;;;5109388;27;19919;-69
2023/08/02 10:37:20;;;;;;;;;;;13.50;99.90;;;;;;5110784;28;19915;-66
2023/08/02 10:39:47;;;;;;;;;;;13.50;99.90;;;;;;5113805;27;19964;-66
2023/08/02 10:42:19;;;;;;;;;;;13.40;99.90;;;;;;5113835;28;19954;-70
2023/08/02 10:44:54;;;;;;;;;;;13.40;99.90;;;;;;5113657;28;20308;-70
2023/08/02 10:47:28;;;;;;;;;;;13.40;99.90;;;;;;5114167;28;19915;-69
2023/08/02 10:49:55;;;;;;;;;;;13.40;99.90;;;;;;5114182;28;19919;-71
2023/08/02 10:52:22;;;;;;;;;;;13.30;99.90;;;;;;5113626;28;19960;-69
2023/08/02 10:55:09;;;;;;;;;;;13.30;99.90;;;;;;5113538;27;20394;-69
2023/08/02 10:57:37;;;;;;;;;;;13.30;99.90;;;;;;5113569;28;19912;-69
2023/08/02 11:00:16;;;;;;;;;;;13.30;99.90;;;;;;5113704;27;19912;-69
2023/08/02 11:02:47;;;;;;;;;;;13.30;99.90;;;;;;5112200;28;19920;-71
2023/08/02 11:05:20;;;;;;;;;;;13.30;99.90;;;;;;5107050;28;19916;-70
2023/08/02 11:08:13;;;;;;;;;;;13.30;99.90;;;;;;5093032;28;20044;-71
2023/08/02 11:10:46;;;;;;;;;;;13.20;99.90;;;;;;5104865;28;19919;-69
2023/08/02 11:13:13;;;;;;;;;;;13.20;99.90;;;;;;5112317;28;19919;-71
2023/08/02 11:15:40;;;;;;;;;;;13.20;99.90;;;;;;5113190;28;19973;-69
2023/08/02 11:18:08;;;;;;;;;;;13.20;99.90;;;;;;5113382;28;19908;-66
2023/08/02 11:20:37;;;;;;;;;;;13.10;99.90;;;;;;5110580;28;19966;-69
2023/08/02 11:23:22;;;;;;;;;;;13.10;99.90;;;;;;5113536;28;19916;-66
2023/08/02 11:25:48;;;;;;;;;;;13.10;99.90;;;;;;5108131;27;19924;-71
2023/08/02 11:28:15;;;;;;;;;;;13.10;99.90;;;;;;5132971;27;19957;-69
2023/08/02 11:30:43;;;;;;;;;;;13.10;99.90;;;;;;5104565;27;19919;-70
2023/08/02 11:33:09;;;;;;;;;;;13.00;99.90;;;;;;5111994;28;19942;-71
2023/08/02 11:35:36;;;;;;;;;;;13.00;99.90;;;;;;5112084;28;19920;-70
2023/08/02 11:38:03;;;;;;;;;;;13.00;99.90;;;;;;5112863;28;19907;-70
2023/08/02 11:40:36;;;;;;;;;;;13.00;99.90;;;;;;5106724;28;20387;-69
2023/08/02 11:43:03;;;;;;;;;;;13.00;99.90;;;;;;5112008;28;20395;-70
2023/08/02 11:45:33;;;;;;;;;;;13.00;99.90;;;;;;5109884;28;19959;-68
2023/08/02 11:48:00;;;;;;;;;;;12.90;99.90;;;;;;5112538;28;19912;-70
2023/08/02 11:50:28;;;;;;;;;;;12.90;99.90;;;;;;5112036;28;20284;-70
2023/08/02 11:53:07;;;;;;;;;;;12.90;99.90;;;;;;5112520;28;20006;-70
2023/08/02 11:55:36;;;;;;;;;;;12.80;99.90;;;;;;5112453;28;19962;-68
2023/08/02 11:58:04;;;;;;;;;;;12.80;99.90;;;;;;5107377;28;19919;-69
2023/08/02 12:00:32;;;;;;;;;;;12.80;99.90;;;;;;5091348;28;19927;-67
2023/08/02 12:03:09;;;;;;;;;;;12.80;99.90;;;;;;5092649;28;19999;-69
2023/08/02 12:05:36;;;;;;;;;;;12.80;99.90;;;;;;5074194;28;19919;-68
2023/08/02 12:08:10;;;;;;;;;;;12.80;99.90;;;;;;5092673;28;19991;-71
2023/08/02 12:10:40;;;;;;;;;;;12.70;99.90;;;;;;5092527;28;19915;-70
2023/08/02 12:13:17;;;;;;;;;;;12.70;99.90;;;;;;5091762;28;19923;-70
2023/08/02 12:16:10;;;;;;;;;;;12.70;99.90;;;;;;5091053;28;19951;-69
2023/08/02 12:18:51;;;;;;;;;;;12.70;99.90;;;;;;5092611;28;19961;-70
2023/08/02 12:21:18;;;;;;;;;;;12.70;99.90;;;;;;5091803;28;20356;-70
2023/08/02 12:23:45;;;;;;;;;;;12.70;99.90;;;;;;5091914;28;20429;-70
2023/08/02 12:26:11;;;;;;;;;;;12.70;99.90;;;;;;5093084;28;19912;-70
2023/08/02 12:28:45;;;;;;;;;;;12.70;99.90;;;;;;5074115;28;20289;-71
2023/08/02 12:31:12;;;;;;;;;;;12.60;99.90;;;;;;5092493;28;19909;-71
2023/08/02 12:33:39;;;;;;;;;;;12.70;99.90;;;;;;5092074;28;19953;-70
2023/08/02 12:36:06;;;;;;;;;;;12.60;99.90;;;;;;5092066;28;20034;-69
2023/08/02 12:38:32;;;;;;;;;;;12.60;99.90;;;;;;5091881;28;19969;-69
2023/08/02 12:41:00;;;;;;;;;;;12.60;99.90;;;;;;5092591;28;19912;-68
2023/08/02 12:43:27;;;;;;;;;;;12.60;99.90;;;;;;5091808;28;20388;-69
2023/08/02 12:45:54;;;;;;;;;;;12.60;99.90;;;;;;5092144;28;19927;-69
2023/08/02 12:48:21;;;;;;;;;;;12.50;99.90;;;;;;5092153;28;19920;-66
2023/08/02 12:50:47;;;;;;;;;;;12.50;99.90;;;;;;5096838;28;20291;-69
2023/08/02 12:53:14;;;;;;;;;;;12.50;99.90;;;;;;5112121;28;20057;-69
2023/08/02 12:55:41;;;;;;;;;;;12.40;99.90;;;;;;5112721;28;20338;-70
2023/08/02 12:58:07;;;;;;;;;;;12.40;99.90;;;;;;5112451;28;19907;-69
2023/08/02 13:00:34;;;;;;;;;;;12.30;99.90;;;;;;5112294;28;19908;-69
2023/08/02 13:03:00;;;;;;;;;;;12.30;99.90;;;;;;5112487;28;19920;-68
2023/08/02 13:05:27;;;;;;;;;;;12.30;99.90;;;;;;5097831;28;20468;-67
2023/08/02 13:07:54;;;;;;;;;;;12.30;99.90;;;;;;5092195;28;19916;-66
2023/08/02 13:10:20;;;;;;;;;;;12.30;99.90;;;;;;5092150;28;19919;-70
2023/08/02 13:12:47;;;;;;;;;;;12.30;99.90;;;;;;5092249;28;19961;-66
2023/08/02 13:15:14;;;;;;;;;;;12.40;99.90;;;;;;5092360;28;20326;-68
2023/08/02 13:17:42;;;;;;;;;;;12.30;99.90;;;;;;5092151;28;19912;-67
2023/08/02 13:20:09;;;;;;;;;;;12.30;99.90;;;;;;5091860;28;19919;-67
2023/08/02 13:22:36;;;;;;;;;;;12.30;99.90;;;;;;5091967;28;19916;-69
2023/08/02 13:25:03;;;;;;;;;;;12.30;99.90;;;;;;5092043;28;20396;-69
2023/08/02 13:27:32;;;;;;;;;;;12.20;99.90;;;;;;5095156;28;20280;-66
2023/08/02 13:30:00;;;;;;;;;;;12.30;99.90;;;;;;5095821;28;19923;-69
2023/08/02 13:32:28;;;;;;;;;;;12.20;99.90;;;;;;5095525;28;19909;-68
2023/08/02 13:34:55;;;;;;;;;;;12.20;99.90;;;;;;5095397;28;19912;-66
2023/08/02 13:37:21;;;;;;;;;;;12.20;99.90;;;;;;5095512;28;20262;-67
2023/08/02 13:39:48;;;;;;;;;;;12.20;99.90;;;;;;5095563;28;19919;-68
2023/08/02 13:42:14;;;;;;;;;;;12.10;99.90;;;;;;5095650;28;19927;-65
2023/08/02 13:44:41;;;;;;;;;;;12.10;99.90;;;;;;5095196;28;19920;-69
2023/08/02 13:47:08;;;;;;;;;;;12.10;99.90;;;;;;5105817;28;19952;-69
2023/08/02 13:49:34;;;;;;;;;;;12.00;99.90;;;;;;5115762;28;19919;-69
2023/08/02 13:52:01;;;;;;;;;;;12.00;99.90;;;;;;5115678;28;20295;-70
2023/08/02 13:54:28;;;;;;;;;;;12.00;99.90;;;;;;5097445;28;19912;-70
2023/08/02 13:56:56;;;;;;;;;;;12.00;99.90;;;;;;5115700;28;19998;-67
2023/08/02 13:59:23;;;;;;;;;;;12.00;99.90;;;;;;5115442;28;20303;-69
2023/08/02 14:01:49;;;;;;;;;;;12.00;99.90;;;;;;5115140;28;19916;-72
2023/08/02 14:04:16;;;;;;;;;;;11.90;99.90;;;;;;5111396;28;20334;-69
2023/08/02 14:06:42;;;;;;;;;;;11.90;99.90;;;;;;5095027;28;19912;-69
2023/08/02 14:09:09;;;;;;;;;;;11.90;99.90;;;;;;5094869;28;19915;-69
2023/08/02 14:11:36;;;;;;;;;;;11.80;99.90;;;;;;5094660;28;19908;-68
2023/08/02 14:14:02;;;;;;;;;;;11.80;99.90;;;;;;5094639;28;20368;-68
2023/08/02 14:16:29;;;;;;;;;;;11.90;99.90;;;;;;5094611;28;19922;-68
2023/08/02 14:18:56;;;;;;;;;;;11.80;99.90;;;;;;5094803;28;19908;-70